Time;durP1;ratioP1;P1;durP2;ratioP2;P2;SDS_P1;SDS_P2;PMS_P1;PMS_P2;Temp;Humidity;BMP_temperature;BMP_pressure;BME280_temperature;BME280_humidity;BME280_pressure;Samples;Min_cycle;Max_cycle;Signal;HPM_P1;HPM_P2
2021/04/05 00:00:23;;;;;;;3.77;3.20;;;19.40;46.50;;;;;;4961896;28;20186;-80
2021/04/05 00:02:51;;;;;;;3.80;3.40;;;19.40;46.60;;;;;;4964450;28;20826;-79
2021/04/05 00:05:23;;;;;;;5.23;3.90;;;19.40;46.50;;;;;;4963920;28;20232;-79
2021/04/05 00:07:52;;;;;;;3.80;3.50;;;19.30;46.50;;;;;;4959088;28;20204;-79
2021/04/05 00:10:31;;;;;;;4.37;3.57;;;19.30;46.50;;;;;;4958691;28;20208;-79
2021/04/05 00:13:00;;;;;;;3.90;3.60;;;19.40;46.50;;;;;;4962040;28;20197;-79
2021/04/05 00:15:29;;;;;;;4.97;3.50;;;19.30;46.50;;;;;;4946044;28;20303;-78
2021/04/05 00:17:55;;;;;;;3.60;3.30;;;19.30;46.60;;;;;;4963740;28;20205;-80
2021/04/05 00:20:34;;;;;;;3.93;3.27;;;19.30;46.60;;;;;;4963173;28;20209;-79
2021/04/05 00:23:00;;;;;;;3.80;3.47;;;19.20;46.60;;;;;;4962787;28;20204;-79
2021/04/05 00:25:28;;;;;;;4.33;3.77;;;19.30;46.70;;;;;;4945371;28;20189;-78
2021/04/05 00:28:01;;;;;;;5.10;3.60;;;19.20;46.60;;;;;;4963927;28;20211;-79
2021/04/05 00:30:32;;;;;;;4.73;3.83;;;19.20;46.70;;;;;;4959059;28;20248;-79
2021/04/05 00:33:00;;;;;;;4.70;3.50;;;19.20;46.70;;;;;;4959196;28;20205;-79
2021/04/05 00:35:30;;;;;;;4.07;3.60;;;19.20;46.80;;;;;;4964684;28;20218;-79
2021/04/05 00:37:57;;;;;;;4.10;3.50;;;19.20;46.80;;;;;;4941584;28;20189;-79
2021/04/05 00:40:42;;;;;;;3.40;3.10;;;19.10;46.70;;;;;;4962860;28;20618;-79
2021/04/05 00:43:12;;;;;;;3.80;3.50;;;19.10;46.80;;;;;;4961588;28;20248;-79
2021/04/05 00:45:42;;;;;;;4.47;3.30;;;19.10;46.80;;;;;;4964273;28;20205;-79
2021/04/05 00:48:10;;;;;;;4.73;3.70;;;19.10;46.80;;;;;;4963171;28;20384;-79
2021/04/05 00:51:01;;;;;;;3.83;3.40;;;19.10;46.80;;;;;;4963296;28;20236;-79
2021/04/05 00:53:31;;;;;;;4.60;3.23;;;19.00;46.70;;;;;;4960704;28;20201;-80
2021/04/05 00:55:58;;;;;;;3.50;3.20;;;19.00;46.80;;;;;;4964780;28;20694;-79
2021/04/05 00:58:28;;;;;;;4.90;4.00;;;19.10;46.90;;;;;;4963783;28;20197;-80
2021/04/05 01:01:13;;;;;;;3.93;3.10;;;19.00;46.90;;;;;;4963520;28;20220;-80
2021/04/05 01:03:42;;;;;;;4.27;3.87;;;19.00;46.80;;;;;;4957867;28;20197;-80
2021/04/05 01:06:15;;;;;;;4.90;3.77;;;19.00;46.90;;;;;;4963845;28;20253;-80
2021/04/05 01:08:42;;;;;;;4.97;3.57;;;19.00;46.90;;;;;;4955456;28;20944;-79
2021/04/05 01:11:10;;;;;;;4.63;3.77;;;19.00;46.90;;;;;;4955245;28;20217;-79
2021/04/05 01:13:37;;;;;;;4.33;3.23;;;19.00;46.90;;;;;;4961033;28;20193;-79
2021/04/05 01:16:05;;;;;;;3.67;3.33;;;19.00;46.90;;;;;;4937755;28;20208;-79
2021/04/05 01:18:31;;;;;;;5.07;3.80;;;19.00;46.90;;;;;;4957922;28;20193;-79
2021/04/05 01:21:01;;;;;;;4.13;3.33;;;18.90;47.00;;;;;;4960613;28;20228;-79
2021/04/05 01:23:29;;;;;;;5.30;3.73;;;18.90;46.90;;;;;;4960074;28;20208;-79
2021/04/05 01:26:02;;;;;;;5.63;4.03;;;18.90;47.00;;;;;;4954490;28;20526;-79
2021/04/05 01:28:28;;;;;;;4.93;3.73;;;18.90;47.00;;;;;;4955014;28;20237;-79
2021/04/05 01:31:04;;;;;;;5.40;3.97;;;18.90;47.00;;;;;;4961138;28;20225;-80
2021/04/05 01:33:39;;;;;;;5.23;3.90;;;18.90;47.00;;;;;;4959626;28;20201;-80
2021/04/05 01:36:14;;;;;;;4.13;3.47;;;18.90;47.00;;;;;;4951796;28;20177;-79
2021/04/05 01:38:43;;;;;;;4.07;3.43;;;18.80;46.90;;;;;;4978322;28;20440;-80
2021/04/05 01:41:43;;;;;;;4.63;3.60;;;18.80;47.00;;;;;;4982233;28;20201;-79
2021/04/05 01:44:09;;;;;;;6.53;4.13;;;18.80;47.00;;;;;;4976461;28;20217;-79
2021/04/05 01:46:37;;;;;;;5.50;3.50;;;18.80;47.00;;;;;;4983784;28;20185;-79
2021/04/05 01:49:03;;;;;;;4.37;3.43;;;18.80;47.00;;;;;;4956364;28;20559;-80
2021/04/05 01:51:29;;;;;;;3.93;3.40;;;18.80;47.00;;;;;;4944579;28;20544;-80
2021/04/05 01:53:56;;;;;;;4.73;4.23;;;18.80;47.10;;;;;;4961191;28;20189;-80
2021/04/05 01:56:23;;;;;;;5.43;3.60;;;18.80;47.00;;;;;;4954426;28;20224;-77
2021/04/05 01:58:53;;;;;;;6.50;3.77;;;18.70;47.00;;;;;;4958008;28;20199;-78
2021/04/05 02:01:26;;;;;;;4.93;3.63;;;18.70;47.00;;;;;;4962816;28;20208;-79
2021/04/05 02:03:53;;;;;;;4.50;3.60;;;18.80;47.20;;;;;;4961817;28;20285;-79
2021/04/05 02:06:21;;;;;;;4.90;3.53;;;18.70;47.10;;;;;;4962686;28;20201;-79
2021/04/05 02:08:48;;;;;;;5.03;3.70;;;18.70;47.10;;;;;;4960741;28;20679;-78
2021/04/05 02:11:17;;;;;;;4.90;3.33;;;18.70;47.10;;;;;;4954739;28;20220;-79
2021/04/05 02:13:48;;;;;;;5.00;3.47;;;18.70;47.10;;;;;;4961325;28;20201;-79
2021/04/05 02:16:16;;;;;;;3.87;3.47;;;18.70;47.20;;;;;;4960402;28;20255;-79
2021/04/05 02:18:46;;;;;;;4.40;3.30;;;18.70;47.20;;;;;;4963014;28;20383;-79
2021/04/05 02:21:16;;;;;;;5.47;3.90;;;18.70;47.20;;;;;;4962377;28;20193;-79
2021/04/05 02:23:45;;;;;;;4.00;3.60;;;18.70;47.20;;;;;;4961284;28;20204;-79
2021/04/05 02:26:20;;;;;;;4.53;3.57;;;18.60;47.20;;;;;;4958202;28;20201;-79
2021/04/05 02:28:48;;;;;;;4.33;3.40;;;18.60;47.20;;;;;;4961713;28;20229;-80
2021/04/05 02:31:20;;;;;;;6.40;3.53;;;18.60;47.20;;;;;;4961077;28;20244;-79
2021/04/05 02:33:51;;;;;;;4.77;3.40;;;18.60;47.20;;;;;;4955195;28;20189;-79
2021/04/05 02:36:21;;;;;;;4.47;3.37;;;18.60;47.20;;;;;;4961963;28;20194;-80
2021/04/05 02:38:55;;;;;;;4.33;3.50;;;18.60;47.20;;;;;;4956509;28;20197;-79
2021/04/05 02:41:26;;;;;;;6.03;3.93;;;18.60;47.20;;;;;;4961455;28;20209;-80
2021/04/05 02:43:53;;;;;;;6.80;3.77;;;18.60;47.30;;;;;;4960678;28;20189;-79
2021/04/05 02:46:25;;;;;;;4.63;3.60;;;18.60;47.20;;;;;;4960647;28;20271;-80
2021/04/05 02:48:53;;;;;;;3.87;3.20;;;18.60;47.20;;;;;;4961738;28;20401;-80
2021/04/05 02:51:20;;;;;;;3.87;3.40;;;18.60;47.30;;;;;;4962084;28;20228;-80
2021/04/05 02:53:50;;;;;;;4.17;3.40;;;18.60;47.30;;;;;;4961985;28;20513;-80
2021/04/05 02:56:18;;;;;;;5.17;3.80;;;18.60;47.30;;;;;;4944985;28;20711;-80
2021/04/05 02:58:46;;;;;;;5.10;3.67;;;18.60;47.30;;;;;;4961748;28;20212;-80
2021/04/05 03:01:13;;;;;;;3.97;3.30;;;18.60;47.30;;;;;;4962909;28;20827;-80
2021/04/05 03:03:47;;;;;;;3.80;3.40;;;18.60;47.30;;;;;;4961408;28;20205;-80
2021/04/05 03:06:20;;;;;;;6.03;4.23;;;18.50;47.20;;;;;;4948988;28;20216;-80
2021/04/05 03:08:47;;;;;;;5.20;3.73;;;18.60;47.30;;;;;;4966240;28;20197;-80
2021/04/05 03:11:20;;;;;;;5.43;3.40;;;18.50;47.20;;;;;;4965532;28;20213;-80
2021/04/05 03:13:47;;;;;;;5.83;3.40;;;18.50;47.30;;;;;;4964652;28;20921;-80
2021/04/05 03:16:17;;;;;;;5.03;3.50;;;18.50;47.30;;;;;;4964955;28;20605;-80
2021/04/05 03:18:47;;;;;;;5.37;3.47;;;18.50;47.30;;;;;;4966260;28;20193;-79
2021/04/05 03:21:21;;;;;;;5.30;3.50;;;18.50;47.30;;;;;;4962531;28;20193;-80
2021/04/05 03:23:47;;;;;;;3.20;2.90;;;18.50;47.30;;;;;;4961776;28;20452;-80
2021/04/05 03:26:14;;;;;;;4.57;3.53;;;18.50;47.30;;;;;;4966603;28;20604;-79
2021/04/05 03:28:40;;;;;;;4.00;3.00;;;18.50;47.30;;;;;;4965496;28;20235;-79
2021/04/05 03:31:19;;;;;;;4.37;3.13;;;18.50;47.30;;;;;;4963746;28;20304;-79
2021/04/05 03:33:48;;;;;;;4.13;3.27;;;18.50;47.40;;;;;;4964458;28;20201;-78
2021/04/05 03:36:19;;;;;;;4.67;3.03;;;18.50;47.40;;;;;;4957738;28;20740;-78
2021/04/05 03:38:46;;;;;;;3.80;3.00;;;18.50;47.40;;;;;;4962763;28;20208;-78
2021/04/05 03:41:45;;;;;;;5.10;3.53;;;18.50;47.40;;;;;;4962773;28;20193;-79
2021/04/05 03:44:26;;;;;;;4.37;2.93;;;18.40;47.40;;;;;;4963725;28;20446;-79
2021/04/05 03:46:59;;;;;;;6.00;3.70;;;18.50;47.40;;;;;;4965958;28;20201;-79
2021/04/05 03:49:51;;;;;;;5.83;3.23;;;18.40;47.40;;;;;;4961357;28;20244;-79
2021/04/05 03:52:17;;;;;;;4.97;2.93;;;18.50;47.40;;;;;;4965192;28;20505;-79
2021/04/05 03:54:50;;;;;;;3.60;3.03;;;18.50;47.40;;;;;;4961830;28;20247;-78
2021/04/05 03:57:22;;;;;;;5.33;3.17;;;18.40;48.10;;;;;;4952700;28;20201;-77
2021/04/05 03:59:54;;;;;;;4.77;3.20;;;18.40;47.70;;;;;;4961745;28;20256;-78
2021/04/05 04:02:37;;;;;;;10.60;3.77;;;18.40;47.80;;;;;;4956179;28;20260;-85
2021/04/05 04:05:10;;;;;;;5.47;3.30;;;18.40;48.70;;;;;;4960941;28;20665;-91
2021/04/05 04:07:41;;;;;;;3.73;2.80;;;18.50;49.20;;;;;;4945948;28;20215;-87
2021/04/05 04:10:11;;;;;;;5.00;3.10;;;18.70;49.20;;;;;;4965921;28;20193;-85
2021/04/05 04:12:40;;;;;;;4.93;3.67;;;18.70;49.20;;;;;;4965411;28;20264;-86
2021/04/05 04:15:08;;;;;;;5.50;2.97;;;18.80;49.40;;;;;;4965946;28;20220;-88
2021/04/05 04:17:37;;;;;;;3.50;2.73;;;18.80;49.20;;;;;;4948650;28;20311;-84
2021/04/05 04:20:11;;;;;;;5.63;3.23;;;19.00;49.40;;;;;;4964595;28;20193;-87
2021/04/05 04:22:38;;;;;;;4.77;2.87;;;19.10;49.20;;;;;;4963943;28;20201;-84
2021/04/05 04:25:07;;;;;;;5.50;3.23;;;19.00;48.60;;;;;;4965632;28;20193;-85
2021/04/05 04:27:38;;;;;;;4.13;3.07;;;19.10;48.80;;;;;;4966706;28;20312;-84
2021/04/05 04:30:06;;;;;;;3.00;2.60;;;19.20;48.50;;;;;;4961769;28;20729;-85
2021/04/05 04:32:32;;;;;;;4.77;3.03;;;19.20;48.40;;;;;;4963829;28;20240;-85
2021/04/05 04:35:00;;;;;;;3.53;2.60;;;19.20;48.20;;;;;;4984824;28;20193;-85
2021/04/05 04:37:26;;;;;;;4.27;2.60;;;19.20;48.20;;;;;;4985931;28;20201;-84
2021/04/05 04:39:58;;;;;;;3.13;2.70;;;19.30;48.00;;;;;;4985854;28;20312;-85
2021/04/05 04:42:27;;;;;;;4.47;2.63;;;19.30;47.80;;;;;;4984895;28;20200;-85
2021/04/05 04:44:53;;;;;;;3.90;2.73;;;19.30;47.90;;;;;;4976655;28;20185;-84
2021/04/05 04:47:22;;;;;;;4.00;2.60;;;19.30;47.70;;;;;;4965229;28;20197;-83
2021/04/05 04:57:34;;;;;;;4.60;2.90;;;19.50;47.40;;;;;;4998475;23;20561;-85
2021/04/05 05:00:02;;;;;;;4.37;2.80;;;19.40;46.70;;;;;;4965969;28;20599;-84
2021/04/05 05:02:30;;;;;;;4.07;2.90;;;19.30;46.70;;;;;;4966171;28;20292;-83
2021/04/05 05:04:56;;;;;;;9.77;3.57;;;19.30;46.60;;;;;;4966170;28;20265;-84
2021/04/05 05:07:24;;;;;;;3.57;2.73;;;19.30;46.50;;;;;;4979187;28;20219;-81
2021/04/05 05:09:53;;;;;;;4.47;3.00;;;19.30;46.60;;;;;;4966090;28;20709;-84
2021/04/05 05:12:21;;;;;;;6.43;3.43;;;19.20;46.50;;;;;;4968062;28;20204;-84
2021/04/05 05:14:51;;;;;;;6.83;3.40;;;19.20;46.60;;;;;;4967128;28;20211;-84
2021/04/05 05:17:18;;;;;;;5.57;2.97;;;19.20;46.60;;;;;;4967676;28;20221;-85
2021/04/05 05:19:46;;;;;;;4.97;3.10;;;19.20;46.60;;;;;;4965697;28;20650;-85
2021/04/05 05:22:32;;;;;;;6.97;3.27;;;19.20;46.60;;;;;;4965470;28;20280;-85
2021/04/05 05:24:59;;;;;;;5.57;3.07;;;19.10;46.60;;;;;;4963743;28;20195;-85
2021/04/05 05:27:36;;;;;;;6.83;3.63;;;19.10;46.70;;;;;;4959741;28;20213;-85
2021/04/05 05:30:06;;;;;;;6.23;2.93;;;19.00;46.60;;;;;;4965093;28;20458;-84
2021/04/05 05:32:34;;;;;;;5.17;3.30;;;19.00;47.30;;;;;;4965975;28;20225;-84
2021/04/05 05:35:06;;;;;;;4.93;3.30;;;19.00;46.70;;;;;;4958698;28;20189;-84
2021/04/05 05:37:33;;;;;;;4.07;3.40;;;19.00;46.70;;;;;;4964877;28;20189;-83
2021/04/05 05:39:59;;;;;;;4.57;3.30;;;19.00;46.80;;;;;;4967077;28;20224;-84
2021/04/05 05:42:44;;;;;;;5.20;3.40;;;18.90;46.80;;;;;;4967576;28;20600;-84
2021/04/05 05:45:21;;;;;;;5.47;3.50;;;18.90;46.90;;;;;;4965482;28;20196;-82
2021/04/05 05:48:04;;;;;;;4.93;3.37;;;18.90;46.90;;;;;;4966771;28;20189;-83
2021/04/05 05:51:05;;;;;;;5.63;2.90;;;18.90;47.00;;;;;;4967097;28;20193;-83
2021/04/05 05:53:53;;;;;;;3.90;2.90;;;18.90;47.10;;;;;;4966318;28;20196;-84
2021/04/05 05:56:34;;;;;;;5.13;3.27;;;18.80;47.20;;;;;;4960024;28;20230;-83
2021/04/05 05:59:34;;;;;;;6.40;2.83;;;18.90;47.50;;;;;;4971763;28;20200;-81
2021/04/05 06:02:35;;;;;;;4.27;2.80;;;18.90;47.50;;;;;;4964926;28;20682;-83
2021/04/05 06:05:42;;;;;;;6.60;3.17;;;18.80;47.60;;;;;;4940188;28;20209;-83
2021/04/05 06:08:37;;;;;;;5.30;3.00;;;18.80;47.70;;;;;;4943175;28;20948;-83
2021/04/05 06:11:26;;;;;;;4.30;3.00;;;18.80;47.70;;;;;;4960493;28;20905;-83
2021/04/05 06:14:06;;;;;;;5.03;3.47;;;18.80;47.70;;;;;;4959154;28;20201;-83
2021/04/05 06:16:51;;;;;;;5.23;3.20;;;18.80;47.70;;;;;;4966936;28;20200;-84
2021/04/05 06:19:42;;;;;;;5.23;3.27;;;18.80;47.70;;;;;;4966298;28;20840;-83
2021/04/05 06:22:48;;;;;;;5.63;3.17;;;18.80;47.70;;;;;;4948016;28;20208;-82
2021/04/05 06:25:42;;;;;;;5.87;3.10;;;18.80;48.10;;;;;;4939288;28;20217;-81
2021/04/05 06:28:35;;;;;;;5.67;3.93;;;18.80;47.90;;;;;;4963626;28;20374;-81
2021/04/05 06:31:25;;;;;;;7.77;3.47;;;18.80;47.90;;;;;;4964266;28;20623;-83
2021/04/05 06:33:53;;;;;;;6.03;3.30;;;18.70;47.80;;;;;;4955306;28;20205;-82
2021/04/05 06:36:45;;;;;;;5.50;3.30;;;18.70;47.90;;;;;;4968317;28;20562;-83
2021/04/05 06:39:25;;;;;;;4.33;3.40;;;18.70;47.90;;;;;;4968737;28;20587;-82
2021/04/05 06:42:29;;;;;;;5.37;3.60;;;18.70;48.10;;;;;;4968617;28;20404;-82
2021/04/05 06:45:41;;;;;;;7.67;3.67;;;18.70;48.00;;;;;;4967632;28;20193;-81
2021/04/05 06:48:45;;;;;;;5.00;3.30;;;18.70;47.90;;;;;;4955864;28;20205;-83
2021/04/05 06:51:43;;;;;;;4.90;3.70;;;18.70;48.00;;;;;;4955607;28;20217;-84
2021/04/05 06:54:30;;;;;;;7.63;4.53;;;18.70;48.10;;;;;;4950552;28;20244;-82
2021/04/05 06:57:05;;;;;;;5.30;3.67;;;18.60;47.50;;;;;;4969687;28;20228;-82
2021/04/05 07:00:05;;;;;;;6.37;3.93;;;18.50;47.30;;;;;;4969671;28;20196;-83
2021/04/05 07:02:55;;;;;;;6.60;3.63;;;18.50;47.20;;;;;;4969110;28;20216;-84
2021/04/05 07:05:49;;;;;;;4.93;3.33;;;18.50;47.20;;;;;;4964039;28;20190;-83
2021/04/05 07:08:40;;;;;;;5.00;3.30;;;18.50;47.20;;;;;;4965691;28;20228;-84
2021/04/05 07:11:17;;;;;;;5.73;3.10;;;18.50;47.20;;;;;;4969186;28;20220;-84
2021/04/05 07:14:28;;;;;;;4.97;3.00;;;18.50;47.30;;;;;;4964662;28;20197;-84
2021/04/05 07:17:23;;;;;;;4.30;3.00;;;18.50;47.40;;;;;;4962862;28;20219;-86
2021/04/05 07:20:07;;;;;;;3.57;2.53;;;18.50;47.60;;;;;;4961245;28;20256;-86
2021/04/05 07:23:12;;;;;;;4.80;2.50;;;18.50;47.50;;;;;;4948908;28;20480;-86
2021/04/05 07:26:15;;;;;;;3.40;2.43;;;18.50;47.60;;;;;;4930720;28;20402;-85
2021/04/05 07:29:02;;;;;;;3.90;2.70;;;18.50;47.70;;;;;;4966879;28;20209;-85
2021/04/05 07:31:42;;;;;;;4.97;2.40;;;18.50;47.70;;;;;;4964271;28;20217;-85
2021/04/05 07:34:50;;;;;;;3.37;2.30;;;18.50;47.70;;;;;;4961055;28;20201;-86
2021/04/05 07:37:41;;;;;;;3.07;1.87;;;18.40;47.60;;;;;;4965939;28;20416;-86
2021/04/05 07:40:26;;;;;;;2.73;1.97;;;18.40;47.50;;;;;;4966663;28;20424;-86
2021/04/05 07:43:33;;;;;;;3.67;2.30;;;18.40;47.60;;;;;;4960707;28;20205;-86
2021/04/05 07:46:10;;;;;;;4.03;1.83;;;18.40;47.70;;;;;;4909748;28;20338;-86
2021/04/05 07:48:46;;;;;;;2.73;1.80;;;18.40;47.70;;;;;;4941225;28;20204;-86
2021/04/05 07:51:20;;;;;;;3.60;1.90;;;18.40;47.70;;;;;;4965868;28;20228;-86
2021/04/05 07:54:05;;;;;;;3.00;1.70;;;18.40;47.70;;;;;;4961716;28;20213;-86
2021/04/05 07:57:09;;;;;;;2.77;1.70;;;18.40;47.70;;;;;;4955963;28;20530;-86
2021/04/05 07:59:54;;;;;;;2.37;1.43;;;18.40;47.60;;;;;;4963726;28;20267;-87
2021/04/05 08:02:38;;;;;;;3.20;1.57;;;18.40;47.60;;;;;;4972005;28;20214;-87
2021/04/05 08:05:47;;;;;;;2.20;1.40;;;18.30;47.50;;;;;;4964568;28;20193;-86
2021/04/05 08:08:46;;;;;;;1.73;1.40;;;18.30;47.40;;;;;;4961403;28;20410;-87
2021/04/05 08:11:23;;;;;;;1.83;1.40;;;18.30;47.50;;;;;;4960656;28;20224;-86
2021/04/05 08:14:08;;;;;;;2.17;1.43;;;18.30;47.50;;;;;;4956829;28;20204;-88
2021/04/05 08:16:45;;;;;;;2.67;1.33;;;18.30;47.40;;;;;;4944924;28;20602;-85
2021/04/05 08:19:25;;;;;;;3.97;1.50;;;18.30;47.30;;;;;;4965091;28;20552;-84
2021/04/05 08:22:13;;;;;;;2.80;1.47;;;18.20;46.90;;;;;;4960068;28;20252;-83
2021/04/05 08:24:58;;;;;;;2.47;1.10;;;18.20;46.70;;;;;;4956482;28;20531;-84
2021/04/05 08:27:41;;;;;;;2.30;1.23;;;18.20;46.50;;;;;;4960737;28;20200;-85
2021/04/05 08:30:25;;;;;;;2.53;1.20;;;18.10;46.10;;;;;;4958436;28;20193;-84
2021/04/05 08:32:54;;;;;;;5.37;1.40;;;18.20;45.90;;;;;;4962694;28;20212;-85
2021/04/05 08:35:46;;;;;;;1.97;0.93;;;18.10;46.10;;;;;;4956266;28;20209;-87
2021/04/05 08:38:36;;;;;;;2.30;1.07;;;18.10;46.20;;;;;;4955275;28;20674;-89
2021/04/05 08:41:34;;;;;;;3.40;1.47;;;18.10;46.00;;;;;;4956862;28;20233;-87
2021/04/05 08:44:36;;;;;;;4.37;1.30;;;18.10;45.90;;;;;;4960650;28;20201;-85
2021/04/05 08:47:17;;;;;;;4.97;1.50;;;18.10;46.00;;;;;;4965478;28;20197;-87
2021/04/05 08:49:47;;;;;;;5.53;1.70;;;18.00;46.50;;;;;;4958250;28;20204;-86
2021/04/05 08:52:21;;;;;;;4.03;1.40;;;18.10;46.80;;;;;;4963011;28;20237;-88
2021/04/05 08:54:51;;;;;;;3.43;1.70;;;18.10;46.70;;;;;;4964956;28;20220;-87
2021/04/05 08:57:21;;;;;;;4.17;1.63;;;18.10;46.80;;;;;;4950273;28;20616;-85
2021/04/05 09:00:02;;;;;;;6.13;1.80;;;18.10;47.00;;;;;;4950565;28;20756;-83
2021/04/05 09:02:42;;;;;;;7.87;2.00;;;18.10;47.80;;;;;;4964297;28;20220;-83
2021/04/05 09:05:24;;;;;;;4.73;1.53;;;18.20;48.60;;;;;;4956106;28;20204;-84
2021/04/05 09:08:11;;;;;;;6.63;1.80;;;18.20;48.70;;;;;;4962643;28;20236;-88
2021/04/05 09:10:50;;;;;;;5.17;1.63;;;18.40;48.50;;;;;;4945293;28;20609;-87
2021/04/05 09:13:32;;;;;;;5.13;1.70;;;18.30;47.80;;;;;;4956400;28;20288;-88
2021/04/05 09:16:36;;;;;;;5.73;1.60;;;18.40;46.80;;;;;;4959011;28;20685;-83
2021/04/05 09:19:30;;;;;;;5.63;1.90;;;18.50;46.60;;;;;;4953539;28;20219;-86
2021/04/05 09:22:20;;;;;;;4.37;1.93;;;18.50;46.60;;;;;;4951831;28;20572;-83
2021/04/05 09:25:26;;;;;;;7.10;1.70;;;18.50;46.60;;;;;;4962458;28;20853;-83
2021/04/05 09:31:03;;;;;;;5.43;1.83;;;18.60;46.40;;;;;;4959332;23;20838;-87
2021/04/05 09:33:57;;;;;;;5.10;1.87;;;18.60;46.90;;;;;;4904361;29;20723;-91
2021/04/05 09:36:43;;;;;;;4.93;1.43;;;18.60;46.70;;;;;;4921924;29;20274;-89
2021/04/05 09:39:33;;;;;;;5.10;1.93;;;18.60;46.70;;;;;;4923796;29;20238;-83
2021/04/05 09:42:31;;;;;;;4.67;1.50;;;18.50;46.80;;;;;;4919182;29;20746;-85
2021/04/05 09:45:15;;;;;;;4.50;1.63;;;18.50;46.20;;;;;;4919549;29;20206;-86
2021/04/05 09:48:16;;;;;;;4.97;1.97;;;18.50;45.90;;;;;;4918713;29;20183;-84
2021/04/05 09:50:45;;;;;;;5.80;1.70;;;18.40;45.80;;;;;;4919472;29;20209;-88
2021/04/05 09:53:46;;;;;;;4.43;1.87;;;18.50;45.50;;;;;;4874022;29;20232;-84
2021/04/05 09:56:23;;;;;;;4.57;1.90;;;18.40;45.40;;;;;;4879671;29;20208;-86
2021/04/05 09:58:55;;;;;;;5.17;1.70;;;18.40;45.10;;;;;;4878629;29;20394;-85
2021/04/05 10:01:29;;;;;;;4.83;1.60;;;18.40;45.00;;;;;;4877372;29;20806;-90
2021/04/05 10:04:10;;;;;;;5.13;1.53;;;18.40;45.00;;;;;;4878002;29;20795;-83
2021/04/05 10:06:38;;;;;;;4.33;1.77;;;18.40;45.10;;;;;;4876219;29;20410;-84
2021/04/05 10:09:09;;;;;;;7.30;1.60;;;18.40;45.10;;;;;;4874770;29;20216;-85
2021/04/05 10:11:41;;;;;;;5.87;2.10;;;18.40;44.70;;;;;;4879105;29;20211;-87
2021/04/05 10:14:12;;;;;;;12.07;3.67;;;18.50;45.00;;;;;;4876444;29;20196;-84
2021/04/05 10:16:44;;;;;;;12.83;3.60;;;18.50;45.20;;;;;;4885723;29;20199;-87
2021/04/05 10:19:13;;;;;;;11.20;3.80;;;18.50;45.40;;;;;;4877533;29;20255;-83
2021/04/05 10:21:50;;;;;;;10.73;3.23;;;18.40;45.50;;;;;;4878894;29;20204;-85
2021/04/05 10:24:23;;;;;;;11.07;3.20;;;18.40;45.00;;;;;;4879243;29;20211;-85
2021/04/05 10:26:52;;;;;;;10.67;3.23;;;18.40;44.90;;;;;;4883386;29;20646;-85
2021/04/05 10:29:22;;;;;;;8.83;2.90;;;18.40;45.10;;;;;;4879422;29;20303;-82
2021/04/05 10:31:49;;;;;;;7.63;2.93;;;18.40;44.90;;;;;;4881407;29;20251;-83
2021/04/05 10:34:20;;;;;;;5.50;2.43;;;18.50;44.90;;;;;;4884513;29;20514;-83
2021/04/05 10:36:51;;;;;;;6.80;2.40;;;18.40;44.90;;;;;;4879607;29;20617;-82
2021/04/05 10:39:17;;;;;;;7.07;2.60;;;18.50;44.60;;;;;;4873040;29;20184;-81
2021/04/05 10:42:02;;;;;;;4.37;2.43;;;18.40;44.30;;;;;;4884462;29;20608;-86
2021/04/05 10:44:38;;;;;;;5.13;1.70;;;18.40;43.70;;;;;;4881155;29;20211;-87
2021/04/05 10:47:11;;;;;;;5.17;1.73;;;18.40;43.60;;;;;;4888290;29;20198;-85
2021/04/05 10:49:43;;;;;;;4.37;1.37;;;18.40;43.70;;;;;;4877201;29;20215;-85
2021/04/05 10:52:14;;;;;;;3.53;1.70;;;18.40;43.30;;;;;;4882794;29;20220;-86
2021/04/05 10:54:42;;;;;;;5.53;1.60;;;18.40;42.90;;;;;;4885494;29;20469;-85
2021/04/05 10:57:18;;;;;;;3.70;1.43;;;18.40;43.10;;;;;;4880850;29;20202;-86
2021/04/05 10:59:53;;;;;;;3.90;1.40;;;18.40;42.90;;;;;;4887315;29;20237;-86
2021/04/05 11:02:43;;;;;;;3.00;1.40;;;18.40;42.50;;;;;;4886848;29;20211;-87
2021/04/05 11:05:16;;;;;;;5.03;1.83;;;18.40;42.90;;;;;;4883619;29;20200;-85
2021/04/05 11:07:46;;;;;;;3.80;1.20;;;18.40;43.10;;;;;;4881587;29;20200;-84
2021/04/05 11:10:21;;;;;;;3.57;1.23;;;18.40;43.70;;;;;;4878752;29;20192;-86
2021/04/05 11:12:54;;;;;;;4.83;1.40;;;18.50;43.40;;;;;;4884357;29;20262;-85
2021/04/05 11:15:22;;;;;;;5.17;1.50;;;18.60;43.50;;;;;;4877358;29;20212;-86
2021/04/05 11:17:52;;;;;;;4.10;1.43;;;18.70;43.20;;;;;;4882570;29;20227;-83
2021/04/05 11:20:21;;;;;;;4.40;1.37;;;18.70;42.90;;;;;;4886866;29;20649;-84
2021/04/05 11:22:57;;;;;;;4.23;1.40;;;18.70;42.80;;;;;;4882525;29;20518;-85
2021/04/05 11:25:30;;;;;;;6.07;1.90;;;18.70;42.60;;;;;;4887175;29;20250;-87
2021/04/05 11:28:33;;;;;;;3.53;1.43;;;18.70;42.30;;;;;;4874418;29;20657;-89
2021/04/05 11:31:21;;;;;;;4.73;1.53;;;18.70;42.20;;;;;;4883905;29;20302;-86
2021/04/05 11:36:42;;;;;;;3.70;1.30;;;18.70;42.50;;;;;;5581100;23;20314;-83
2021/04/05 11:39:13;;;;;;;3.13;1.47;;;18.70;42.00;;;;;;4908179;29;20187;-83
2021/04/05 11:41:51;;;;;;;6.43;1.40;;;18.70;42.00;;;;;;4900932;29;20837;-83
2021/04/05 11:44:21;;;;;;;3.77;1.40;;;18.80;41.90;;;;;;4904909;29;20584;-86
2021/04/05 11:46:49;;;;;;;2.77;1.30;;;18.70;41.90;;;;;;4901774;29;20200;-84
2021/04/05 11:49:15;;;;;;;5.17;1.60;;;18.70;41.60;;;;;;4908672;29;20279;-83
2021/04/05 11:52:06;;;;;;;8.27;1.60;;;18.80;41.50;;;;;;4899322;29;20223;-82
2021/04/05 11:54:57;;;;;;;4.00;1.60;;;18.80;41.50;;;;;;4894489;29;20200;-81
2021/04/05 11:57:35;;;;;;;2.50;1.00;;;18.80;41.50;;;;;;4896683;29;20199;-84
2021/04/05 12:00:15;;;;;;;3.10;1.37;;;18.80;41.30;;;;;;4893570;29;20672;-85
2021/04/05 12:02:50;;;;;;;6.47;1.63;;;18.80;41.00;;;;;;4898146;29;20200;-85
2021/04/05 12:05:25;;;;;;;5.20;1.83;;;18.80;41.80;;;;;;4897186;29;20215;-84
2021/04/05 12:08:02;;;;;;;3.23;1.30;;;18.80;41.60;;;;;;4894026;29;20209;-85
2021/04/05 12:10:30;;;;;;;3.80;1.60;;;18.90;41.00;;;;;;4895650;29;20183;-87
2021/04/05 12:13:19;;;;;;;3.43;1.20;;;18.90;41.70;;;;;;4896211;29;20223;-84
2021/04/05 12:15:54;;;;;;;4.20;1.47;;;18.90;41.40;;;;;;4890110;29;20203;-81
2021/04/05 12:18:24;;;;;;;2.77;1.20;;;18.90;40.90;;;;;;4892639;29;20198;-81
2021/04/05 12:21:08;;;;;;;4.00;1.63;;;18.80;40.50;;;;;;4892845;29;20617;-81
2021/04/05 12:23:35;;;;;;;3.00;1.20;;;18.70;40.30;;;;;;4879285;29;20195;-80
2021/04/05 12:26:05;;;;;;;3.47;1.47;;;18.70;40.00;;;;;;4896016;29;20219;-82
2021/04/05 12:28:37;;;;;;;3.20;1.33;;;18.60;40.00;;;;;;4896333;29;20854;-81
2021/04/05 12:31:08;;;;;;;3.77;1.10;;;18.60;39.70;;;;;;4897190;29;20215;-81
2021/04/05 12:33:57;;;;;;;3.03;0.93;;;18.60;39.80;;;;;;4894826;29;20498;-81
2021/04/05 12:36:32;;;;;;;3.07;1.30;;;18.50;39.50;;;;;;4905713;29;20227;-81
2021/04/05 12:39:00;;;;;;;2.73;1.10;;;18.50;39.50;;;;;;4895026;29;20214;-81
2021/04/05 12:41:48;;;;;;;3.60;1.00;;;18.40;39.40;;;;;;4880184;29;20287;-80
2021/04/05 12:44:24;;;;;;;5.00;1.10;;;18.40;39.20;;;;;;4894879;29;20199;-81
2021/04/05 12:46:52;;;;;;;2.53;0.83;;;18.40;39.00;;;;;;4895333;29;20211;-80
2021/04/05 12:49:28;;;;;;;4.43;1.40;;;18.40;39.30;;;;;;4889587;29;20454;-83
2021/04/05 12:52:16;;;;;;;3.77;1.03;;;18.40;39.40;;;;;;4895306;29;20227;-81
2021/04/05 12:54:46;;;;;;;3.03;1.20;;;18.40;39.90;;;;;;4894400;29;20255;-81
2021/04/05 12:57:13;;;;;;;11.23;1.53;;;18.40;40.10;;;;;;4894253;29;20214;-81
2021/04/05 12:59:40;;;;;;;6.53;1.77;;;18.30;40.00;;;;;;4894938;29;20244;-82
2021/04/05 13:02:20;;;;;;;6.20;1.37;;;18.40;39.70;;;;;;4893884;29;20196;-82
2021/04/05 13:04:55;;;;;;;5.13;1.30;;;18.30;39.00;;;;;;4893325;29;20230;-83
2021/04/05 13:07:46;;;;;;;5.30;1.40;;;18.20;38.50;;;;;;4894469;29;20686;-81
2021/04/05 13:10:24;;;;;;;6.70;1.23;;;18.20;38.40;;;;;;4862227;29;20215;-88
2021/04/05 13:12:53;;;;;;;5.63;1.33;;;18.20;38.60;;;;;;4878464;29;20256;-83
2021/04/05 13:15:23;;;;;;;3.70;1.20;;;18.20;39.10;;;;;;4892527;29;20184;-84
2021/04/05 13:18:10;;;;;;;3.33;1.00;;;18.10;39.00;;;;;;4890735;29;20204;-83
2021/04/05 13:20:39;;;;;;;4.50;1.20;;;18.10;38.70;;;;;;4895997;29;20242;-81
2021/04/05 13:23:06;;;;;;;3.13;1.27;;;18.10;38.90;;;;;;4897911;29;20219;-81
2021/04/05 13:25:58;;;;;;;2.80;1.13;;;18.10;38.70;;;;;;4896620;29;20212;-83
2021/04/05 13:28:28;;;;;;;3.33;1.43;;;18.00;39.00;;;;;;4889068;29;20437;-82
2021/04/05 13:31:07;;;;;;;4.60;1.20;;;18.10;39.50;;;;;;4879907;29;20211;-83
2021/04/05 13:33:43;;;;;;;4.07;1.10;;;18.10;39.70;;;;;;4878190;29;20226;-83
2021/04/05 13:36:14;;;;;;;1.70;1.00;;;18.10;39.80;;;;;;4873791;29;20235;-84
2021/04/05 13:38:42;;;;;;;3.33;1.20;;;18.30;40.80;;;;;;4903374;29;20192;-83
2021/04/05 13:41:18;;;;;;;3.77;1.20;;;18.30;41.20;;;;;;4896260;29;20210;-87
2021/04/05 13:43:47;;;;;;;6.27;1.20;;;18.40;41.60;;;;;;4880867;29;20202;-85
2021/04/05 13:46:16;;;;;;;2.10;1.03;;;18.40;41.60;;;;;;4895437;29;20200;-83
2021/04/05 13:49:11;;;;;;;2.93;1.20;;;18.50;41.50;;;;;;4895074;29;20226;-85